createdAt,value
2018-04-01T00:00:16.551Z,61.24
2018-04-01T00:01:16.559Z,60.99
2018-04-01T00:02:16.570Z,60.81
2018-04-01T00:03:16.606Z,61.69
2018-04-01T00:04:16.569Z,61.18
2018-04-01T00:05:16.548Z,60.82
2018-04-01T00:06:16.545Z,61.03
2018-04-01T00:07:16.573Z,61.69
2018-04-01T00:08:16.552Z,61.55
2018-04-01T00:09:16.558Z,61.37
2018-04-01T00:10:16.555Z,61.11
2018-04-01T00:11:16.552Z,60.72
2018-04-01T00:12:16.579Z,61.84
2018-04-01T00:13:16.568Z,61.86
2018-04-01T00:14:16.550Z,61.92
2018-04-01T00:15:16.678Z,61.7
2018-04-01T00:16:16.575Z,61.54
2018-04-01T00:17:16.588Z,61.09
2018-04-01T00:18:16.548Z,60.79
2018-04-01T00:19:16.639Z,61.42
2018-04-01T00:20:16.554Z,61.22
2018-04-01T00:21:16.559Z,61.05
2018-04-01T00:22:16.591Z,61.04
2018-04-01T00:23:16.560Z,61.38
2018-04-01T00:24:16.585Z,61.36
2018-04-01T00:25:16.558Z,61.52
2018-04-01T00:26:16.576Z,61.75
2018-04-01T00:27:16.560Z,61.31
2018-04-01T00:28:16.564Z,61.45
2018-04-01T00:29:16.584Z,61.71
2018-04-01T00:30:16.553Z,62.14
2018-04-01T00:31:16.564Z,61.82
2018-04-01T00:32:16.579Z,62.11
2018-04-01T00:33:16.554Z,62.01
2018-04-01T00:34:16.645Z,62.13
2018-04-01T00:35:16.593Z,61.78
2018-04-01T00:36:16.623Z,61.81
2018-04-01T00:37:16.571Z,61.86
2018-04-01T00:38:16.566Z,62.23
2018-04-01T00:39:16.566Z,62.32
2018-04-01T00:40:16.586Z,62.42
2018-04-01T00:41:16.835Z,62.6
2018-04-01T00:42:16.562Z,62.53
2018-04-01T00:43:16.610Z,62.34
2018-04-01T00:44:16.566Z,62.18
2018-04-01T00:45:16.565Z,62.14
2018-04-01T00:46:16.579Z,64.21
2018-04-01T00:47:16.598Z,64.5
2018-04-01T00:48:16.585Z,64.99
2018-04-01T00:49:16.573Z,64.44
2018-04-01T00:50:16.568Z,64.21
2018-04-01T00:51:16.566Z,63.54
2018-04-01T00:52:16.602Z,64.97
2018-04-01T00:53:16.573Z,64.29
2018-04-01T00:54:16.597Z,63.98
2018-04-01T00:55:16.564Z,64.1
2018-04-01T00:56:16.581Z,64.75
2018-04-01T00:57:16.574Z,65.29
2018-04-01T00:58:16.566Z,64.81
2018-04-01T00:59:16.569Z,65.34
2018-04-01T01:00:16.582Z,64.82
2018-04-01T01:01:16.596Z,65.06
2018-04-01T01:02:16.575Z,64.93
2018-04-01T01:03:17.035Z,65.01
2018-04-01T01:04:16.589Z,65.19
2018-04-01T01:05:16.686Z,65.24
2018-04-01T01:06:16.595Z,65.25
2018-04-01T01:07:16.617Z,65.62
2018-04-01T01:08:16.638Z,65.58
2018-04-01T01:09:16.584Z,65.38
2018-04-01T01:10:16.603Z,65.59
2018-04-01T01:11:16.590Z,65.63
2018-04-01T01:12:16.578Z,65.58
2018-04-01T01:13:16.595Z,65.99
2018-04-01T01:14:16.572Z,65.45
2018-04-01T01:15:16.589Z,65.29
2018-04-01T01:16:16.569Z,65.38
2018-04-01T01:17:16.610Z,65.55
2018-04-01T01:18:16.609Z,65.62
2018-04-01T01:19:16.584Z,65.64
2018-04-01T01:20:16.640Z,65.53
2018-04-01T01:21:16.575Z,65.33
2018-04-01T01:22:16.621Z,65.5
2018-04-01T01:23:16.570Z,65.73
2018-04-01T01:24:16.577Z,65.6
2018-04-01T01:25:16.606Z,65.7
2018-04-01T01:26:16.603Z,65.67
2018-04-01T01:27:16.590Z,65.74
2018-04-01T01:28:16.579Z,65.8
2018-04-01T01:29:16.574Z,65.92
2018-04-01T01:30:16.573Z,65.85
2018-04-01T01:31:16.589Z,65.87
2018-04-01T01:32:16.629Z,66.03
2018-04-01T01:33:16.629Z,66.07
2018-04-01T01:34:16.594Z,66.27
2018-04-01T01:35:16.600Z,66.31
2018-04-01T01:36:16.720Z,66.31
2018-04-01T01:37:16.615Z,66.21
2018-04-01T01:38:16.582Z,66.25
2018-04-01T01:39:16.644Z,66.21
2018-04-01T01:40:16.594Z,66.31
2018-04-01T01:41:16.592Z,66.72
2018-04-01T01:42:16.598Z,66.35
2018-04-01T01:43:16.588Z,66.65
2018-04-01T01:44:16.586Z,66.51
2018-04-01T01:45:16.588Z,66.13
2018-04-01T01:46:16.590Z,66.58
2018-04-01T01:47:16.591Z,67.04
2018-04-01T01:48:16.692Z,66.75
2018-04-01T01:49:16.598Z,67.22
2018-04-01T01:50:16.617Z,66.95
2018-04-01T01:51:16.593Z,67.12
2018-04-01T01:52:16.601Z,67.39
2018-04-01T01:53:16.583Z,67.5
2018-04-01T01:54:16.592Z,67.35
2018-04-01T01:55:16.586Z,67.4
2018-04-01T01:56:16.592Z,67.55
2018-04-01T01:57:16.597Z,67.24
2018-04-01T01:58:16.592Z,67.82
2018-04-01T01:59:16.588Z,67.83
2018-04-01T02:00:16.627Z,68.16
2018-04-01T02:01:16.591Z,68.2
2018-04-01T02:02:16.584Z,68.57
2018-04-01T02:03:16.597Z,68.96
2018-04-01T02:04:16.604Z,69.12
2018-04-01T02:05:16.975Z,69.31
2018-04-01T02:06:16.601Z,69.43
2018-04-01T02:07:16.727Z,69.65
2018-04-01T02:08:16.586Z,69.95
2018-04-01T02:09:16.596Z,70.52
2018-04-01T02:10:16.622Z,70.38
2018-04-01T02:11:16.606Z,70.46
2018-04-01T02:12:16.607Z,70.42
2018-04-01T02:13:16.592Z,70.8
2018-04-01T02:14:16.599Z,70.81
2018-04-01T02:15:16.596Z,71.47
2018-04-01T02:16:16.595Z,72.39
2018-04-01T02:17:16.612Z,72.66
2018-04-01T02:18:16.592Z,72.94
2018-04-01T02:19:16.596Z,73.53
2018-04-01T02:20:16.608Z,74.04
2018-04-01T02:21:16.636Z,74.48
2018-04-01T02:22:16.598Z,74.99
2018-04-01T02:23:16.610Z,74.86
2018-04-01T02:24:16.617Z,74.36
2018-04-01T02:25:16.601Z,75.07
2018-04-01T02:26:16.742Z,75.51
2018-04-01T02:27:16.602Z,75.02
2018-04-01T02:28:16.606Z,75.11
2018-04-01T02:29:16.605Z,75.02
2018-04-01T02:30:16.607Z,75.66
2018-04-01T02:31:16.681Z,76.09
2018-04-01T02:32:16.607Z,75.66
2018-04-01T02:33:16.606Z,75.48
2018-04-01T02:34:16.610Z,75.36
2018-04-01T02:35:16.616Z,75.88
2018-04-01T02:36:16.615Z,76.15
2018-04-01T02:37:16.627Z,77.21
2018-04-01T02:38:16.733Z,76.88
2018-04-01T02:39:16.625Z,77.28
2018-04-01T02:40:16.601Z,77.3
2018-04-01T02:41:16.723Z,77.35
2018-04-01T02:42:16.736Z,77.78
2018-04-01T02:43:16.614Z,78.22
2018-04-01T02:44:16.690Z,78.98
2018-04-01T02:45:16.636Z,78.46
2018-04-01T02:46:16.614Z,77.8
2018-04-01T02:47:16.644Z,78.4
2018-04-01T02:48:16.614Z,78.69
2018-04-01T02:49:16.627Z,78.68
2018-04-01T02:50:16.621Z,78.71
2018-04-01T02:51:16.623Z,77.98
2018-04-01T02:52:16.654Z,79.16
2018-04-01T02:53:16.631Z,78.53
2018-04-01T02:54:16.817Z,78.7
2018-04-01T02:55:16.641Z,78.29
2018-04-01T02:56:16.606Z,78.91
2018-04-01T02:57:16.620Z,78.84
2018-04-01T02:58:16.625Z,79.42
2018-04-01T02:59:16.663Z,79.33
2018-04-01T03:00:16.658Z,78.81
2018-04-01T03:01:16.625Z,78.48
2018-04-01T03:02:16.626Z,79.43
2018-04-01T03:03:16.633Z,79.15
2018-04-01T03:04:16.627Z,79.24
2018-04-01T03:05:16.687Z,79
2018-04-01T03:06:16.686Z,78.99
2018-04-01T03:07:16.702Z,78.7
2018-04-01T03:08:16.612Z,78.31
2018-04-01T03:09:16.681Z,79.37
2018-04-01T03:10:16.641Z,79.96
2018-04-01T03:11:16.618Z,79.09
2018-04-01T03:12:16.620Z,78.79
2018-04-01T03:13:16.662Z,78.9
2018-04-01T03:14:16.619Z,79.51
2018-04-01T03:15:16.628Z,79.08
2018-04-01T03:16:16.620Z,78.78
2018-04-01T03:17:16.614Z,78.81
2018-04-01T03:18:16.653Z,78.71
2018-04-01T03:19:16.642Z,78.45
2018-04-01T03:20:16.625Z,78.65
2018-04-01T03:21:16.626Z,78.3
2018-04-01T03:22:16.631Z,78.5
2018-04-01T03:23:16.661Z,78.64
2018-04-01T03:24:16.640Z,78.23
2018-04-01T03:25:16.625Z,78.67
2018-04-01T03:26:16.636Z,77.72
2018-04-01T03:27:16.636Z,78.78
2018-04-01T03:28:16.666Z,78.93
2018-04-01T03:29:16.627Z,78.76
2018-04-01T03:30:16.631Z,78.48
2018-04-01T03:31:16.895Z,79.06
2018-04-01T03:32:16.629Z,78.9
2018-04-01T03:33:16.656Z,78.74
2018-04-01T03:34:16.628Z,78.65
2018-04-01T03:35:16.664Z,78.94
2018-04-01T03:36:16.650Z,78.92
2018-04-01T03:37:16.636Z,79.08
2018-04-01T03:38:16.627Z,78.79
2018-04-01T03:39:16.635Z,78.49
2018-04-01T03:40:16.717Z,79.11
2018-04-01T03:41:16.652Z,79.19
2018-04-01T03:42:16.633Z,79.56
2018-04-01T03:43:16.661Z,79.06
2018-04-01T03:44:16.657Z,79.19
2018-04-01T03:45:16.639Z,79.13
2018-04-01T03:46:16.663Z,79.19
2018-04-01T03:47:16.644Z,79.84
2018-04-01T03:48:16.667Z,79.33
2018-04-01T03:49:16.627Z,79.26
2018-04-01T03:50:16.640Z,79.1
2018-04-01T03:51:16.625Z,79.12
2018-04-01T03:52:16.633Z,79.36
2018-04-01T03:53:16.661Z,79.41
2018-04-01T03:54:16.674Z,79.41
2018-04-01T03:55:16.629Z,79.24
2018-04-01T03:56:16.636Z,79.69
2018-04-01T03:57:16.639Z,79.22
2018-04-01T03:58:16.666Z,79.44
2018-04-01T03:59:16.680Z,79.28
2018-04-01T04:00:16.645Z,79.7
2018-04-01T04:01:16.653Z,79.8
2018-04-01T04:02:16.632Z,79.38
2018-04-01T04:03:16.635Z,79.7
2018-04-01T04:04:16.641Z,79.24
2018-04-01T04:05:16.713Z,79.41
2018-04-01T04:06:16.649Z,79.88
2018-04-01T04:07:16.638Z,79.87
2018-04-01T04:08:17.191Z,79.32
2018-04-01T04:09:16.656Z,79.25
2018-04-01T04:10:16.649Z,79.44
2018-04-01T04:11:16.695Z,79.44
2018-04-01T04:12:16.670Z,79.33
2018-04-01T04:13:16.651Z,79.86
2018-04-01T04:14:16.640Z,79.35
2018-04-01T04:15:16.678Z,79.6
2018-04-01T04:16:16.640Z,79.51
2018-04-01T04:17:16.720Z,79.28
2018-04-01T04:18:16.644Z,79.18
2018-04-01T04:19:16.650Z,79.15
2018-04-01T04:20:16.650Z,79.35
2018-04-01T04:21:16.630Z,79.25
2018-04-01T04:22:16.673Z,78.9
2018-04-01T04:23:16.669Z,79.59
2018-04-01T04:24:16.644Z,79.61
2018-04-01T04:25:16.658Z,79.73
2018-04-01T04:26:16.643Z,79.81
2018-04-01T04:27:16.665Z,79.37
2018-04-01T04:28:16.643Z,79.34
2018-04-01T04:29:16.655Z,79.78
2018-04-01T04:30:16.648Z,79.8
2018-04-01T04:31:16.641Z,79.55
2018-04-01T04:32:16.674Z,79.8
2018-04-01T04:33:16.656Z,79.65
2018-04-01T04:34:16.653Z,80.12
2018-04-01T04:35:16.646Z,79.85
2018-04-01T04:36:16.659Z,80.22
2018-04-01T04:37:16.671Z,79.94
2018-04-01T04:38:16.644Z,79.65
2018-04-01T04:39:16.652Z,79.69
2018-04-01T04:40:16.663Z,79.94
2018-04-01T04:41:16.708Z,80.17
2018-04-01T04:42:16.805Z,80.37
2018-04-01T04:43:16.671Z,80.43
2018-04-01T04:44:16.647Z,80.29
2018-04-01T04:45:16.653Z,79.95
2018-04-01T04:46:16.662Z,80.2
2018-04-01T04:47:16.969Z,79.96
2018-04-01T04:48:16.645Z,79.6
2018-04-01T04:49:16.654Z,78.87
2018-04-01T04:50:16.668Z,79.96
2018-04-01T04:51:16.675Z,79.73
2018-04-01T04:52:16.700Z,79.98
2018-04-01T04:53:16.675Z,80
2018-04-01T04:54:16.650Z,80.09
2018-04-01T04:55:16.684Z,79.95
2018-04-01T04:56:16.690Z,80.11
2018-04-01T04:57:16.689Z,79.94
2018-04-01T04:58:16.649Z,79.67
2018-04-01T04:59:16.667Z,79.93
2018-04-01T05:00:16.688Z,79.93
2018-04-01T05:01:16.728Z,79.88
2018-04-01T05:02:16.657Z,79.97
2018-04-01T05:03:16.652Z,79.9
2018-04-01T05:04:16.730Z,80.05
2018-04-01T05:05:16.663Z,79.86
2018-04-01T05:06:16.942Z,79.87
2018-04-01T05:07:16.674Z,79.88
2018-04-01T05:08:16.665Z,80.01
2018-04-01T05:09:16.658Z,79.98
2018-04-01T05:10:16.674Z,79.57
2018-04-01T05:11:16.736Z,79.78
2018-04-01T05:12:16.667Z,79.78
2018-04-01T05:13:16.728Z,79.49
2018-04-01T05:14:16.714Z,79.22
2018-04-01T05:15:16.668Z,78.87
2018-04-01T05:16:16.677Z,78.81
2018-04-01T05:17:16.669Z,78.43
2018-04-01T05:18:16.682Z,78.42
2018-04-01T05:19:16.686Z,78.59
2018-04-01T05:20:16.678Z,78.73
2018-04-01T05:21:16.683Z,78.44
2018-04-01T05:22:16.668Z,78.22
2018-04-01T05:23:16.676Z,78.46
2018-04-01T05:24:16.695Z,78.1
2018-04-01T05:25:16.674Z,77.97
2018-04-01T05:26:16.720Z,77.89
2018-04-01T05:27:16.681Z,77.94
2018-04-01T05:28:16.735Z,77.95
2018-04-01T05:29:16.672Z,78
2018-04-01T05:30:16.720Z,78.14
2018-04-01T05:31:16.693Z,78.49
2018-04-01T05:32:16.677Z,78.23
2018-04-01T05:33:16.681Z,78.17
2018-04-01T05:34:16.696Z,78.37
2018-04-01T05:35:16.921Z,78.37
2018-04-01T05:36:16.665Z,78.77
2018-04-01T05:37:16.660Z,78.79
2018-04-01T05:38:16.668Z,79.25
2018-04-01T05:39:16.667Z,79.01
2018-04-01T05:40:16.693Z,79.24
2018-04-01T05:41:16.682Z,79.48
2018-04-01T05:42:16.700Z,79.48
2018-04-01T05:43:16.680Z,79.57
2018-04-01T05:44:16.787Z,79.72
2018-04-01T05:45:16.735Z,79.35
2018-04-01T05:46:16.743Z,79.33
2018-04-01T05:47:16.749Z,79.17
2018-04-01T05:48:16.753Z,79.09
2018-04-01T05:49:16.760Z,79.16
2018-04-01T05:50:16.680Z,79.28
2018-04-01T05:51:16.703Z,79.13
2018-04-01T05:52:16.697Z,78.97
2018-04-01T05:53:16.676Z,79.16
2018-04-01T05:54:16.681Z,78.71
2018-04-01T05:55:16.681Z,78.48
2018-04-01T05:56:16.738Z,79.06
2018-04-01T05:57:16.706Z,78.53
2018-04-01T05:58:16.684Z,78.77
2018-04-01T05:59:16.679Z,79.06
2018-04-01T06:00:16.673Z,79.02
2018-04-01T06:01:16.682Z,78.58
2018-04-01T06:02:16.711Z,78.34
2018-04-01T06:03:16.727Z,78.03
2018-04-01T06:04:16.682Z,78.29
2018-04-01T06:05:16.684Z,78.12
2018-04-01T06:06:16.698Z,78.2
2018-04-01T06:07:16.695Z,78.06
2018-04-01T06:08:17.066Z,78.22
2018-04-01T06:09:16.682Z,78
2018-04-01T06:10:16.677Z,77.96
2018-04-01T06:11:16.699Z,78.06
2018-04-01T06:12:16.810Z,77.98
2018-04-01T06:13:16.824Z,77.87
2018-04-01T06:14:16.675Z,77.7
2018-04-01T06:15:16.788Z,77.43
2018-04-01T06:16:16.680Z,77.61
2018-04-01T06:17:16.688Z,77.74
2018-04-01T06:18:17.012Z,77.67
2018-04-01T06:19:16.688Z,77.83
2018-04-01T06:20:16.727Z,77.76
2018-04-01T06:21:16.678Z,77.62
2018-04-01T06:22:16.677Z,77.56
2018-04-01T06:23:16.707Z,77.04
2018-04-01T06:24:17.046Z,77.04
2018-04-01T06:25:16.747Z,76.99
2018-04-01T06:26:16.692Z,77.3
2018-04-01T06:27:16.707Z,77.25
2018-04-01T06:28:16.690Z,77.36
2018-04-01T06:29:16.724Z,77.13
2018-04-01T06:30:16.689Z,76.89
2018-04-01T06:31:16.678Z,76.72
2018-04-01T06:32:16.701Z,76.62
2018-04-01T06:33:16.697Z,76.7
2018-04-01T06:34:16.690Z,76.84
2018-04-01T06:35:16.722Z,76.8
2018-04-01T06:36:16.688Z,77.08
2018-04-01T06:37:16.710Z,77.11
2018-04-01T06:38:16.684Z,77.03
2018-04-01T06:39:16.719Z,76.67
2018-04-01T06:40:16.692Z,76.81
2018-04-01T06:41:16.735Z,76.86
2018-04-01T06:42:16.700Z,77.45
2018-04-01T06:43:16.686Z,77.26
2018-04-01T06:44:16.725Z,77.36
2018-04-01T06:45:16.707Z,77.33
2018-04-01T06:46:16.769Z,77.48
2018-04-01T06:47:16.705Z,77.62
2018-04-01T06:48:16.726Z,77.36
2018-04-01T06:49:16.689Z,77.25
2018-04-01T06:50:16.709Z,77.28
2018-04-01T06:51:16.744Z,77.83
2018-04-01T06:52:16.709Z,77.77
2018-04-01T06:53:16.701Z,77.39
2018-04-01T06:54:16.711Z,77.27
2018-04-01T06:55:16.727Z,77.1
2018-04-01T06:56:16.817Z,77.37
2018-04-01T06:57:16.718Z,77.28
2018-04-01T06:58:16.739Z,77
2018-04-01T06:59:16.730Z,77.28
2018-04-01T07:00:16.805Z,77.21
2018-04-01T07:01:16.762Z,77.2
2018-04-01T07:02:16.768Z,77.23
2018-04-01T07:03:16.700Z,77.37
2018-04-01T07:04:16.702Z,77.31
2018-04-01T07:05:16.765Z,77.5
2018-04-01T07:06:16.706Z,77.22
2018-04-01T07:07:16.704Z,77.26
2018-04-01T07:08:16.724Z,76.62
2018-04-01T07:09:16.768Z,77.02
2018-04-01T07:10:16.722Z,77.3
2018-04-01T07:11:16.730Z,77.84
2018-04-01T07:12:16.737Z,77.38
2018-04-01T07:13:16.743Z,77.31
2018-04-01T07:14:16.734Z,77.67
2018-04-01T07:15:16.709Z,77.55
2018-04-01T07:16:16.716Z,77.52
2018-04-01T07:17:16.777Z,77.85
2018-04-01T07:18:16.698Z,77.61
2018-04-01T07:19:16.751Z,77.58
2018-04-01T07:20:16.710Z,78.21
2018-04-01T07:21:16.716Z,78.52
2018-04-01T07:22:16.741Z,78.54
2018-04-01T07:23:16.715Z,77.65
2018-04-01T07:24:16.753Z,78.18
2018-04-01T07:25:16.751Z,78.34
2018-04-01T07:26:16.732Z,78.56
2018-04-01T07:27:16.702Z,78.71
2018-04-01T07:28:16.989Z,78.56
2018-04-01T07:29:16.709Z,78.72
2018-04-01T07:30:16.706Z,78.68
2018-04-01T07:31:16.710Z,79.29
2018-04-01T07:32:16.702Z,79.1
2018-04-01T07:33:16.743Z,79.61
2018-04-01T07:34:16.822Z,79.92
2018-04-01T07:35:16.715Z,79.75
2018-04-01T07:36:16.901Z,80.01
2018-04-01T07:37:16.708Z,79.99
2018-04-01T07:38:16.763Z,80.01
2018-04-01T07:39:16.715Z,79.68
2018-04-01T07:40:16.749Z,79.91
2018-04-01T07:41:16.721Z,79.6
2018-04-01T07:42:16.715Z,79.6
2018-04-01T07:43:16.754Z,79.45
2018-04-01T07:44:16.713Z,79.38
2018-04-01T07:45:16.723Z,79.59
2018-04-01T07:46:16.710Z,79.8
2018-04-01T07:47:16.736Z,79.73
2018-04-01T07:48:16.795Z,79.54
2018-04-01T07:49:16.713Z,79.3
2018-04-01T07:50:16.791Z,79.14
2018-04-01T07:51:16.722Z,79.08
2018-04-01T07:52:16.718Z,79.17
2018-04-01T07:53:16.719Z,78.8
2018-04-01T07:54:16.788Z,78.97
2018-04-01T07:55:16.724Z,79.03
2018-04-01T07:56:16.729Z,78.64
2018-04-01T07:57:16.779Z,78.46
2018-04-01T07:58:16.724Z,78.7
2018-04-01T07:59:16.716Z,78.51
2018-04-01T08:00:16.724Z,79.05
2018-04-01T08:01:16.720Z,78.34
2018-04-01T08:02:16.713Z,78.72
2018-04-01T08:03:16.729Z,78.77
2018-04-01T08:04:16.973Z,78.74
2018-04-01T08:05:16.768Z,78.39
2018-04-01T08:06:16.715Z,78.3
2018-04-01T08:07:16.721Z,78.05
2018-04-01T08:08:16.729Z,78.08
2018-04-01T08:09:16.747Z,77.8
2018-04-01T08:10:16.736Z,78.08
2018-04-01T08:11:16.766Z,78.08
2018-04-01T08:12:16.726Z,77.97
2018-04-01T08:13:16.731Z,78.18
2018-04-01T08:14:16.750Z,77.93
2018-04-01T08:15:16.727Z,77.71
2018-04-01T08:16:16.730Z,77.08
2018-04-01T08:17:16.831Z,77.04
2018-04-01T08:18:16.781Z,77.26
2018-04-01T08:19:16.792Z,77.11
2018-04-01T08:20:16.731Z,77.31
2018-04-01T08:21:16.733Z,77.64
2018-04-01T08:22:16.736Z,77.49
2018-04-01T08:23:16.725Z,77.32
2018-04-01T08:24:16.875Z,76.99
2018-04-01T08:25:16.750Z,76.99
2018-04-01T08:26:16.735Z,76.72
2018-04-01T08:27:16.736Z,76.7
2018-04-01T08:28:16.743Z,76.61
2018-04-01T08:29:16.763Z,76.88
2018-04-01T08:30:16.842Z,77.11
2018-04-01T08:31:16.769Z,76.5
2018-04-01T08:32:16.772Z,76.75
2018-04-01T08:33:16.753Z,76.57
2018-04-01T08:34:17.012Z,77.1
2018-04-01T08:35:16.760Z,77.48
2018-04-01T08:36:17.069Z,77.43
2018-04-01T08:37:16.735Z,77.24
2018-04-01T08:38:16.738Z,77.46
2018-04-01T08:39:16.753Z,77.77
2018-04-01T08:40:16.747Z,76.84
2018-04-01T08:41:16.774Z,76.24
2018-04-01T08:42:16.746Z,75.99
2018-04-01T08:43:16.753Z,76.13
2018-04-01T08:44:16.750Z,76.65
2018-04-01T08:45:16.758Z,75.83
2018-04-01T08:46:16.874Z,75.09
2018-04-01T08:47:16.745Z,75.78
2018-04-01T08:48:16.748Z,75.94
2018-04-01T08:49:16.748Z,75.59
2018-04-01T08:50:16.817Z,76.3
2018-04-01T08:51:16.757Z,76.98
2018-04-01T08:52:16.793Z,77.57
2018-04-01T08:53:16.947Z,77.24
2018-04-01T08:54:16.750Z,77.43
2018-04-01T08:55:16.753Z,78.73
2018-04-01T08:56:17.086Z,78.7
2018-04-01T08:57:16.784Z,78.89
2018-04-01T08:58:16.735Z,79.59
2018-04-01T08:59:16.872Z,79.48
2018-04-01T09:00:16.752Z,79.22
2018-04-01T09:01:16.771Z,78.79
2018-04-01T09:02:16.751Z,79.46
2018-04-01T09:03:16.756Z,79.33
2018-04-01T09:04:16.739Z,79.22
2018-04-01T09:05:16.747Z,79.55
2018-04-01T09:06:16.872Z,79.45
2018-04-01T09:07:16.738Z,79.82
2018-04-01T09:08:16.746Z,80.23
2018-04-01T09:09:17.278Z,80
2018-04-01T09:10:16.795Z,79.09
2018-04-01T09:11:17.055Z,79.57
2018-04-01T09:12:17.494Z,79.59
2018-04-01T09:13:16.767Z,79.98
2018-04-01T09:14:16.898Z,79.64
2018-04-01T09:15:16.750Z,78.61
2018-04-01T09:16:16.765Z,78.85
2018-04-01T09:17:16.769Z,79.06
2018-04-01T09:18:16.774Z,78.32
2018-04-01T09:19:16.757Z,78.17
2018-04-01T09:20:16.759Z,78.36
2018-04-01T09:21:16.809Z,78.13
2018-04-01T09:22:16.968Z,77.37
2018-04-01T09:23:16.746Z,76.83
2018-04-01T09:24:16.758Z,77.98
2018-04-01T09:25:16.746Z,78.09
2018-04-01T09:26:16.873Z,77.49
2018-04-01T09:27:17.022Z,77.73
2018-04-01T09:28:16.754Z,77.68
2018-04-01T09:29:16.773Z,76.89
2018-04-01T09:30:16.772Z,77.33
2018-04-01T09:31:16.802Z,77.02
2018-04-01T09:32:16.793Z,77.05
2018-04-01T09:33:16.759Z,77.35
2018-04-01T09:34:16.805Z,77.17
2018-04-01T09:35:16.813Z,76.86
2018-04-01T09:36:16.767Z,76.96
2018-04-01T09:37:16.783Z,76.55
2018-04-01T09:38:16.815Z,76.49
2018-04-01T09:39:16.751Z,76.79
2018-04-01T09:40:16.804Z,76.55
2018-04-01T09:41:16.777Z,76.62
2018-04-01T09:42:16.794Z,76.32
2018-04-01T09:43:16.915Z,76.34
2018-04-01T09:44:16.778Z,76.87
2018-04-01T09:45:16.791Z,76.73
2018-04-01T09:46:16.780Z,76.5
2018-04-01T09:47:16.809Z,75.97
2018-04-01T09:48:16.774Z,76.05
2018-04-01T09:49:16.804Z,75.71
2018-04-01T09:50:16.771Z,75.56
2018-04-01T09:51:16.776Z,75.39
2018-04-01T09:52:16.847Z,74.83
2018-04-01T09:53:16.810Z,74.54
2018-04-01T09:54:16.765Z,73.39
2018-04-01T09:55:16.777Z,73.74
2018-04-01T09:56:17.190Z,73.03
2018-04-01T09:57:16.767Z,73.55
2018-04-01T09:58:16.776Z,74.16
2018-04-01T09:59:16.788Z,74.22
2018-04-01T10:00:16.782Z,74.33
2018-04-01T10:01:16.782Z,74.37
2018-04-01T10:02:16.779Z,72.46
2018-04-01T10:03:16.809Z,72.67
2018-04-01T10:04:16.774Z,73.21
2018-04-01T10:05:16.779Z,72.74
2018-04-01T10:06:16.902Z,72.2
2018-04-01T10:07:16.769Z,71.4
2018-04-01T10:08:16.763Z,70.74
2018-04-01T10:09:17.631Z,70.44
2018-04-01T10:10:16.780Z,70.35
2018-04-01T10:11:16.806Z,69.78
2018-04-01T10:12:16.793Z,69.5
2018-04-01T10:13:16.904Z,68.49
2018-04-01T10:14:16.765Z,69.05
2018-04-01T10:15:16.772Z,68.78
2018-04-01T10:16:16.788Z,68.22
2018-04-01T10:17:16.769Z,68.87
2018-04-01T10:18:17.654Z,67.75
2018-04-01T10:19:16.795Z,67.69
2018-04-01T10:20:17.084Z,68.15
2018-04-01T10:21:19.095Z,68.26
2018-04-01T10:22:16.923Z,67.94
2018-04-01T10:23:18.509Z,68.25
2018-04-01T10:24:16.770Z,68.38
2018-04-01T10:25:16.787Z,68.29
2018-04-01T10:26:16.796Z,67.93
2018-04-01T10:27:16.785Z,67.35
2018-04-01T10:28:16.782Z,68.29
2018-04-01T10:29:16.777Z,68.22
2018-04-01T10:30:16.796Z,68.3
2018-04-01T10:31:16.822Z,68.51
2018-04-01T10:32:16.791Z,67.96
2018-04-01T10:33:16.805Z,67.96
2018-04-01T10:34:16.799Z,68.13
2018-04-01T10:35:16.853Z,68.85
2018-04-01T10:36:16.809Z,69.24
2018-04-01T10:37:16.803Z,69.43
2018-04-01T10:38:16.864Z,69.79
2018-04-01T10:39:16.778Z,69.93
2018-04-01T10:40:16.785Z,69.21
2018-04-01T10:41:16.778Z,69.29
2018-04-01T10:42:16.787Z,69.49
2018-04-01T10:43:17.092Z,69.24
2018-04-01T10:44:16.822Z,69.25
2018-04-01T10:45:16.792Z,69.31
2018-04-01T10:46:16.785Z,68.97
2018-04-01T10:47:16.802Z,68.77
2018-04-01T10:48:16.928Z,68.12
2018-04-01T10:49:16.794Z,68.19
2018-04-01T10:50:16.793Z,67.5
2018-04-01T10:51:16.802Z,66.72
2018-04-01T10:52:16.796Z,66.84
2018-04-01T10:53:16.983Z,66.11
2018-04-01T10:54:16.913Z,66.21
2018-04-01T10:55:16.796Z,66.25
2018-04-01T10:56:16.796Z,66.15
2018-04-01T10:57:16.797Z,66.38
2018-04-01T10:58:16.862Z,65.96
2018-04-01T10:59:16.809Z,65.99
2018-04-01T11:00:16.790Z,64.41
2018-04-01T11:01:16.823Z,64.46
2018-04-01T11:02:16.802Z,64.23
2018-04-01T11:03:16.808Z,64.11
2018-04-01T11:04:16.792Z,64.92
2018-04-01T11:05:16.788Z,65.68
2018-04-01T11:06:16.804Z,65.92
2018-04-01T11:07:16.816Z,65.85
2018-04-01T11:08:16.846Z,65.14
2018-04-01T11:09:16.823Z,65.13
2018-04-01T11:10:16.823Z,65.27
2018-04-01T11:11:16.863Z,65.6
2018-04-01T11:12:16.827Z,65.54
2018-04-01T11:13:16.841Z,65.23
2018-04-01T11:14:16.805Z,65.39
2018-04-01T11:15:16.819Z,65.08
2018-04-01T11:16:16.819Z,65.48
2018-04-01T11:17:16.803Z,65.72
2018-04-01T11:18:16.842Z,64.7
2018-04-01T11:19:16.824Z,64.75
2018-04-01T11:20:16.807Z,63.52
2018-04-01T11:21:16.819Z,62.79
2018-04-01T11:22:16.820Z,62.42
2018-04-01T11:23:16.803Z,61.97
2018-04-01T11:24:16.817Z,62.01
2018-04-01T11:25:16.895Z,62.22
2018-04-01T11:26:16.798Z,60.62
2018-04-01T11:27:16.799Z,60.15
2018-04-01T11:28:16.840Z,60.08
2018-04-01T11:29:16.807Z,61.05
2018-04-01T11:30:16.810Z,61.55
2018-04-01T11:31:16.969Z,61.53
2018-04-01T11:32:16.829Z,61.72
2018-04-01T11:33:16.844Z,61.26
2018-04-01T11:34:16.848Z,61.24
2018-04-01T11:35:16.814Z,60.95
2018-04-01T11:36:16.836Z,60.99
2018-04-01T11:37:16.800Z,60.89
2018-04-01T11:38:16.801Z,60.76
2018-04-01T11:39:17.184Z,61.2
2018-04-01T11:40:16.830Z,61.72
2018-04-01T11:41:16.821Z,61.37
2018-04-01T11:42:16.801Z,61.78
2018-04-01T11:43:16.816Z,62.04
2018-04-01T11:44:16.845Z,62.3
2018-04-01T11:45:16.810Z,61.69
2018-04-01T11:46:16.826Z,61.79
2018-04-01T11:47:16.812Z,60.93
2018-04-01T11:48:16.804Z,59.44
2018-04-01T11:49:16.839Z,59.45
2018-04-01T11:50:16.824Z,59.91
2018-04-01T11:51:16.806Z,59.95
2018-04-01T11:52:16.816Z,59.97
2018-04-01T11:53:16.835Z,60.49
2018-04-01T11:54:16.818Z,60.66
2018-04-01T11:55:16.832Z,61.06
2018-04-01T11:56:16.891Z,61.61
2018-04-01T11:57:16.811Z,64.37
2018-04-01T11:58:16.816Z,65.56
2018-04-01T11:59:16.852Z,67.95
2018-04-01T12:00:16.829Z,70.97
2018-04-01T12:01:16.829Z,72.45
2018-04-01T12:02:16.823Z,72.51
2018-04-01T12:03:17.076Z,73.83
2018-04-01T12:04:16.803Z,76
2018-04-01T12:05:16.818Z,74.91
2018-04-01T12:06:16.960Z,75.88
2018-04-01T12:07:16.867Z,77.57
2018-04-01T12:08:16.813Z,75.47
2018-04-01T12:09:16.816Z,74.31
2018-04-01T12:10:16.825Z,74.59
2018-04-01T12:11:16.850Z,73.01
2018-04-01T12:12:16.809Z,73.6
2018-04-01T12:13:16.808Z,72.56
2018-04-01T12:14:17.041Z,72.47
2018-04-01T12:15:16.821Z,74
2018-04-01T12:16:16.843Z,73.42
2018-04-01T12:17:16.847Z,72.76
2018-04-01T12:18:16.985Z,72.44
2018-04-01T12:19:16.828Z,71.14
2018-04-01T12:20:16.821Z,69.38
2018-04-01T12:21:16.845Z,70.74
2018-04-01T12:22:16.843Z,70.45
2018-04-01T12:23:16.821Z,70.53
2018-04-01T12:24:16.872Z,70.15
2018-04-01T12:25:16.829Z,70.16
2018-04-01T12:26:16.866Z,69.84
2018-04-01T12:27:16.914Z,69.64
2018-04-01T12:28:16.817Z,69.28
2018-04-01T12:29:16.843Z,67.53
2018-04-01T12:30:16.822Z,68.43
2018-04-01T12:31:16.862Z,69.35
2018-04-01T12:32:16.843Z,68.68
2018-04-01T12:33:16.817Z,68.68
2018-04-01T12:34:16.833Z,68.88
2018-04-01T12:35:16.817Z,68.9
2018-04-01T12:36:16.827Z,68.8
2018-04-01T12:37:16.852Z,67.77
2018-04-01T12:38:16.879Z,67.83
2018-04-01T12:39:16.826Z,67.27
2018-04-01T12:40:16.851Z,68.38
2018-04-01T12:41:16.829Z,68.68
2018-04-01T12:42:16.870Z,67.86
2018-04-01T12:43:16.860Z,68.45
2018-04-01T12:44:16.836Z,69.28
2018-04-01T12:45:16.847Z,70.06
2018-04-01T12:46:16.834Z,70.49
2018-04-01T12:47:16.858Z,70.29
2018-04-01T12:48:16.854Z,70.39
2018-04-01T12:49:16.863Z,68.98
2018-04-01T12:50:16.860Z,69.74
2018-04-01T12:51:16.845Z,69.97
2018-04-01T12:52:16.887Z,70.61
2018-04-01T12:53:16.828Z,70.75
2018-04-01T12:54:16.839Z,70.83
2018-04-01T12:55:16.838Z,70.71